Terminal Aerodrome Forecast
Issued by NWS

Home | Current Version | Previous Version | Text Only | Print | Product List | Glossary On
Versions: 1 2 3 4 5 6 7 8 9 10 11 12 13
000
FTUS45 KTFX 311700
TAFLWT
TAF
KLWT 311739Z 3118/0118 31014G20KT 3/4SM -SN BR OVC006
      TEMPO 3118/3122 2SM -SN BR OVC012
     FM010100 31006KT 2SM -SN BR OVC008
     FM010600 VRB05KT P6SM OVC012
     FM011500 15004KT P6SM SKC
     FM011700 15005KT P6SM BKN250=

USA.gov is the U.S. government's official web portal to all federal, state and local government web resources and services.